KAL1021 RKPC-RKSS
Flight info
| Callsign | KAL1021 |
|---|---|
| Flight time | N/A |
| Altitude | 25000 |
| Route | KAMIT1W KAMIT Y722 OLMEN OLMEN2T |
| Aircraft | B77W/H-SDE1E2E3FGHIJ2J3J4J5M1RWXY/LB1D1 |
Departure
| Time | 2026-05-04 11:08 |
|---|---|
| Airport | Jeju International Airport (RKPC) |
Arrival
| Time | N/A |
|---|---|
| Airport | Gimpo International Airport (RKSS) |
| Time | Latitude | Longitude | Altitude | Speed | Heading |
|---|---|---|---|---|---|
| 2026-05-04 10:54 | 33.50650 | 126.49051 | 92 ft | 0 kts | 148° |
| 2026-05-04 10:54 | 33.50650 | 126.49050 | 92 ft | 0 kts | 148° |
| 2026-05-04 10:58 | 33.50657 | 126.49046 | 92 ft | 2 kts | 148° |
| 2026-05-04 10:58 | 33.50670 | 126.49036 | 91 ft | 2 kts | 148° |
| 2026-05-04 10:58 | 33.50680 | 126.49029 | 91 ft | 2 kts | 144° |
| 2026-05-04 10:58 | 33.50691 | 126.49017 | 90 ft | 2 kts | 125° |
| 2026-05-04 10:59 | 33.50699 | 126.49000 | 90 ft | 2 kts | 109° |
| 2026-05-04 10:59 | 33.50702 | 126.48984 | 89 ft | 2 kts | 95° |
| 2026-05-04 10:59 | 33.50702 | 126.48966 | 89 ft | 2 kts | 80° |
| 2026-05-04 10:59 | 33.50698 | 126.48949 | 89 ft | 2 kts | 65° |
| 2026-05-04 11:00 | 33.50695 | 126.48940 | 89 ft | 1 kts | 57° |
| 2026-05-04 11:01 | 33.50693 | 126.48937 | 88 ft | 0 kts | 58° |
| 2026-05-04 11:02 | 33.50694 | 126.48938 | 88 ft | 0 kts | 58° |
| 2026-05-04 11:02 | 33.50699 | 126.48947 | 88 ft | 2 kts | 59° |
| 2026-05-04 11:05 | 33.51324 | 126.49802 | 82 ft | 21 kts | 36° |
| 2026-05-04 11:06 | 33.51387 | 126.49811 | 78 ft | 7 kts | 343° |
| 2026-05-04 11:06 | 33.51447 | 126.49771 | 76 ft | 11 kts | 326° |
| 2026-05-04 11:06 | 33.51456 | 126.49711 | 76 ft | 3 kts | 242° |
| 2026-05-04 11:06 | 33.51456 | 126.49709 | 76 ft | 0 kts | 240° |
| 2026-05-04 11:08 | 33.49320 | 126.45511 | 2571 ft | 182 kts | 240° |
| 2026-05-04 11:10 | 33.45132 | 126.34106 | 7988 ft | 268 kts | 290° |
| 2026-05-04 11:12 | 33.57017 | 126.27288 | 10007 ft | 301 kts | 341° |
| 2026-05-04 11:12 | 33.58942 | 126.26553 | 10012 ft | 286 kts | 341° |
| 2026-05-04 11:12 | 33.60823 | 126.25833 | 10012 ft | 278 kts | 341° |
| 2026-05-04 11:12 | 33.62644 | 126.25137 | 10013 ft | 276 kts | 341° |
| 2026-05-04 11:13 | 33.64492 | 126.24490 | 10010 ft | 276 kts | 348° |
| 2026-05-04 11:13 | 33.66402 | 126.24453 | 10003 ft | 278 kts | 7° |
| 2026-05-04 11:13 | 33.68265 | 126.25195 | 10002 ft | 288 kts | 26° |
| 2026-05-04 11:13 | 33.69866 | 126.26787 | 10627 ft | 313 kts | 46° |
| 2026-05-04 11:14 | 33.70310 | 126.27445 | 10862 ft | 320 kts | 49° |